Carbon, West Virginia
Current Conditions -  °F | °C
As of 7:54 PM on Wednesday 22 Oct 2014 (Local Time) from KCRW Reporting Station
Overcast Overcast  
Wind Chill: 50°   Ceiling: 2800
Heat Index: 50°   Visibility: 10mi
Dew Point: 44°   Wind: 6mph
Humidity: 80%   Direction: 310°NW
Pressure: 30.21"   Gusts: NA
Location:  38.0912°N, 81.4436°W
Report Text: KCRW 222354Z 31005KT 10SM FEW018 OVC028 10/07 A3021 RMK AO2 SLP231 T01000067 10111 20100 53003
Loading
Personal Weather Stations






























Interactive Weather Map
Tropical Storm Tracking
New forecast layout! Learn more

10-Day Weather Forecast

Advertisements
Track Severe Weather on mobile